Time;durP1;ratioP1;P1;durP2;ratioP2;P2;SDS_P1;SDS_P2;PMS_P1;PMS_P2;Temp;Humidity;BMP_temperature;BMP_pressure;BME280_temperature;BME280_humidity;BME280_pressure;Samples;Min_cycle;Max_cycle;Signal;HPM_P1;HPM_P2
2023/12/14 00:01:22;;;;;;;2.60;1.00;;;21.60;47.90;;;;;;5105851;28;19999;-40
2023/12/14 00:03:48;;;;;;;1.05;0.93;;;21.60;48.50;;;;;;5110998;28;20028;-41
2023/12/14 00:06:15;;;;;;;1.95;0.90;;;21.50;48.00;;;;;;5122051;28;20032;-40
2023/12/14 00:08:41;;;;;;;1.40;0.80;;;21.50;47.90;;;;;;5114447;27;20039;-40
2023/12/14 00:11:08;;;;;;;1.13;0.88;;;21.50;47.80;;;;;;5118104;27;20031;-41
2023/12/14 00:13:34;;;;;;;2.90;0.90;;;21.50;48.40;;;;;;5118513;28;20027;-39
2023/12/14 00:16:00;;;;;;;2.63;0.88;;;21.50;48.00;;;;;;5117016;28;20027;-39
2023/12/14 00:18:27;;;;;;;3.10;0.87;;;21.50;48.10;;;;;;5116113;27;20107;-40
2023/12/14 00:20:53;;;;;;;1.13;0.80;;;21.50;48.10;;;;;;5115724;27;20054;-39
2023/12/14 00:23:20;;;;;;;1.45;0.95;;;21.50;48.10;;;;;;5114012;27;20032;-39
2023/12/14 00:25:46;;;;;;;1.55;0.95;;;21.50;48.10;;;;;;5119453;28;20031;-39
2023/12/14 00:28:13;;;;;;;3.17;1.00;;;21.50;48.00;;;;;;5112706;27;20105;-39
2023/12/14 00:30:39;;;;;;;4.28;1.00;;;21.50;48.00;;;;;;5116692;27;20684;-39
2023/12/14 00:33:05;;;;;;;2.33;0.80;;;21.50;48.00;;;;;;5113101;28;20061;-39
2023/12/14 00:35:31;;;;;;;2.28;1.00;;;21.50;48.00;;;;;;5115289;27;20027;-40
2023/12/14 00:37:58;;;;;;;1.70;0.90;;;21.50;48.10;;;;;;5116118;27;20038;-40
2023/12/14 00:40:25;;;;;;;2.53;0.98;;;21.50;48.10;;;;;;5120947;28;20035;-40
2023/12/14 00:42:51;;;;;;;1.52;1.25;;;21.50;48.10;;;;;;5104750;28;20046;-40
2023/12/14 00:45:17;;;;;;;1.50;1.15;;;21.50;48.00;;;;;;5116758;28;20047;-40
2023/12/14 00:47:43;;;;;;;3.85;1.30;;;21.50;48.00;;;;;;5116477;28;20077;-41
2023/12/14 00:50:10;;;;;;;2.25;1.10;;;21.40;48.00;;;;;;5107054;28;20055;-40
2023/12/14 00:52:36;;;;;;;2.50;0.90;;;21.50;48.20;;;;;;5116444;28;20077;-40
2023/12/14 00:55:02;;;;;;;1.58;0.80;;;21.50;48.20;;;;;;5115003;28;20038;-41
2023/12/14 00:57:28;;;;;;;2.90;1.10;;;21.40;48.30;;;;;;5113947;28;20044;-40
2023/12/14 00:59:54;;;;;;;4.65;1.10;;;21.50;48.30;;;;;;5117676;28;20035;-40
2023/12/14 01:02:21;;;;;;;5.72;1.00;;;21.50;48.50;;;;;;5101324;28;20032;-39
2023/12/14 01:04:47;;;;;;;1.83;1.00;;;21.50;48.50;;;;;;5118843;28;20958;-40
2023/12/14 01:07:13;;;;;;;2.92;0.82;;;21.50;48.50;;;;;;5115037;28;20040;-39
2023/12/14 01:09:40;;;;;;;1.00;0.80;;;21.50;48.50;;;;;;5096034;28;20059;-39
2023/12/14 01:12:06;;;;;;;3.03;1.00;;;21.50;48.40;;;;;;5114331;27;20542;-40
2023/12/14 01:14:32;;;;;;;2.83;1.03;;;21.50;48.50;;;;;;5111603;27;20065;-41
2023/12/14 01:16:59;;;;;;;1.50;0.90;;;21.50;48.60;;;;;;5113918;27;20032;-41
2023/12/14 01:19:25;;;;;;;2.03;1.07;;;21.50;48.60;;;;;;5114955;28;20028;-40
2023/12/14 01:21:51;;;;;;;0.98;0.82;;;21.50;48.40;;;;;;5119604;28;20145;-41
2023/12/14 01:24:18;;;;;;;1.47;1.03;;;21.50;48.30;;;;;;5115825;28;20055;-42
2023/12/14 01:26:44;;;;;;;2.65;0.90;;;21.60;48.40;;;;;;5113987;27;20322;-41
2023/12/14 01:29:11;;;;;;;3.63;0.98;;;21.60;48.20;;;;;;5116211;27;20039;-42
2023/12/14 01:31:37;;;;;;;1.40;0.90;;;21.60;48.20;;;;;;5114279;28;20036;-42
2023/12/14 01:34:03;;;;;;;1.45;0.95;;;21.60;48.10;;;;;;5113610;27;20029;-42
2023/12/14 01:36:29;;;;;;;1.65;1.20;;;21.60;48.00;;;;;;5114450;28;20053;-42
2023/12/14 01:38:55;;;;;;;1.02;0.88;;;21.60;48.10;;;;;;5115347;28;20024;-42
2023/12/14 01:41:22;;;;;;;1.88;0.93;;;21.60;48.00;;;;;;5117522;27;20033;-41
2023/12/14 01:43:48;;;;;;;1.92;1.13;;;21.60;47.90;;;;;;5115691;28;20028;-41
2023/12/14 01:46:16;;;;;;;1.85;1.10;;;21.60;47.90;;;;;;5109664;27;21553;-44
2023/12/14 01:48:42;;;;;;;1.10;1.00;;;21.60;48.00;;;;;;5113586;28;20563;-43
2023/12/14 01:51:08;;;;;;;1.70;0.93;;;21.60;48.00;;;;;;5107192;28;20096;-43
2023/12/14 01:53:34;;;;;;;1.23;1.00;;;21.60;48.00;;;;;;5111482;27;20087;-42
2023/12/14 01:56:00;;;;;;;0.95;0.90;;;21.60;48.00;;;;;;5108009;27;20039;-43
2023/12/14 01:58:26;;;;;;;1.77;0.93;;;21.60;48.00;;;;;;5114859;28;20031;-42
2023/12/14 02:01:09;;;;;;;1.40;1.10;;;21.60;47.90;;;;;;5112333;28;20038;-42
2023/12/14 02:03:35;;;;;;;1.80;1.00;;;21.60;47.90;;;;;;5115274;28;20487;-41
2023/12/14 02:06:02;;;;;;;1.10;0.88;;;21.60;48.40;;;;;;5112600;27;20031;-41
2023/12/14 02:08:29;;;;;;;1.50;1.08;;;21.60;48.20;;;;;;5110970;27;20039;-43
2023/12/14 02:10:55;;;;;;;1.15;1.05;;;21.60;48.10;;;;;;5095869;28;20023;-42
2023/12/14 02:13:21;;;;;;;1.75;1.20;;;21.70;48.10;;;;;;5110192;27;20023;-42
2023/12/14 02:15:48;;;;;;;1.00;0.90;;;21.60;47.90;;;;;;5109344;28;20038;-42
2023/12/14 02:18:14;;;;;;;1.70;1.00;;;21.60;47.90;;;;;;5108671;28;20048;-42
2023/12/14 02:20:40;;;;;;;2.50;1.05;;;21.60;48.10;;;;;;5111547;28;20128;-41
2023/12/14 02:23:06;;;;;;;2.08;1.00;;;21.60;48.00;;;;;;5112140;28;20035;-42
2023/12/14 02:25:32;;;;;;;1.10;1.00;;;21.60;48.00;;;;;;5112949;28;20587;-42
2023/12/14 02:27:58;;;;;;;1.60;1.20;;;21.60;47.90;;;;;;5116734;27;20095;-44
2023/12/14 02:30:25;;;;;;;2.75;1.23;;;21.60;47.80;;;;;;5093043;28;20039;-43
2023/12/14 02:32:51;;;;;;;1.17;1.07;;;21.60;47.80;;;;;;5116822;27;20028;-45
2023/12/14 02:35:18;;;;;;;1.52;1.30;;;21.70;47.90;;;;;;5116255;27;20024;-44
2023/12/14 02:37:44;;;;;;;2.53;1.05;;;21.60;47.80;;;;;;5115834;28;20035;-43
2023/12/14 02:40:10;;;;;;;1.53;1.20;;;21.60;47.90;;;;;;5119025;28;20559;-44
2023/12/14 02:42:37;;;;;;;1.55;1.30;;;21.60;47.90;;;;;;5115307;28;20028;-45
2023/12/14 02:45:03;;;;;;;1.70;1.30;;;21.60;47.90;;;;;;5119360;28;20038;-44
2023/12/14 02:47:30;;;;;;;2.05;1.40;;;21.50;47.90;;;;;;5116150;28;20070;-43
2023/12/14 02:49:56;;;;;;;2.00;1.70;;;21.50;47.90;;;;;;5113109;28;20483;-43
2023/12/14 02:52:24;;;;;;;2.78;1.30;;;21.50;47.90;;;;;;5111678;28;20597;-43
2023/12/14 02:54:50;;;;;;;1.65;1.17;;;21.50;48.00;;;;;;5117473;28;20034;-44
2023/12/14 02:57:16;;;;;;;1.30;1.10;;;21.50;48.00;;;;;;5110820;28;20051;-43
2023/12/14 02:59:42;;;;;;;1.42;1.15;;;21.50;48.00;;;;;;5108488;28;20863;-43
2023/12/14 03:02:09;;;;;;;2.50;1.27;;;21.40;47.90;;;;;;5107768;28;20028;-44
2023/12/14 03:04:37;;;;;;;1.98;1.40;;;21.40;48.00;;;;;;5117375;28;20035;-44
2023/12/14 03:07:03;;;;;;;1.80;1.50;;;21.40;48.00;;;;;;5117456;28;20036;-43
2023/12/14 03:09:29;;;;;;;2.45;1.60;;;21.40;48.00;;;;;;5116650;28;20043;-43
2023/12/14 03:11:56;;;;;;;2.00;1.58;;;21.40;48.10;;;;;;5111800;28;20024;-43
2023/12/14 03:14:23;;;;;;;2.07;1.67;;;21.30;48.10;;;;;;5113503;28;20032;-43
2023/12/14 03:16:49;;;;;;;2.30;1.80;;;21.30;48.10;;;;;;5114192;28;20036;-43
2023/12/14 03:19:16;;;;;;;2.30;1.60;;;21.30;48.10;;;;;;5118158;28;20038;-44
2023/12/14 03:21:43;;;;;;;3.75;1.83;;;21.20;48.10;;;;;;5111356;28;20889;-45
2023/12/14 03:24:09;;;;;;;2.60;1.45;;;21.20;48.20;;;;;;5113737;28;20122;-45
2023/12/14 03:26:36;;;;;;;1.98;1.60;;;21.20;48.30;;;;;;5115729;28;20032;-45
2023/12/14 03:29:02;;;;;;;2.17;1.60;;;21.20;48.20;;;;;;5117842;28;20043;-47
2023/12/14 03:31:48;;;;;;;1.43;1.33;;;21.20;48.20;;;;;;5111944;28;20020;-46
2023/12/14 03:34:15;;;;;;;2.20;1.67;;;21.10;48.20;;;;;;5011967;28;20629;-45
2023/12/14 03:36:41;;;;;;;2.53;1.80;;;21.10;48.30;;;;;;5007433;28;20045;-45
2023/12/14 03:39:07;;;;;;;3.65;1.75;;;21.10;48.30;;;;;;5011208;28;20766;-45
2023/12/14 03:41:33;;;;;;;2.42;2.00;;;21.10;48.30;;;;;;5009697;28;20030;-44
2023/12/14 03:43:59;;;;;;;2.83;2.05;;;21.10;48.40;;;;;;5017137;28;20029;-46
2023/12/14 03:46:25;;;;;;;1.80;1.70;;;21.10;48.40;;;;;;5015251;28;20110;-47
2023/12/14 03:48:51;;;;;;;2.63;2.00;;;21.10;48.40;;;;;;5016619;28;20034;-45
2023/12/14 03:51:20;;;;;;;1.95;1.75;;;21.00;48.30;;;;;;5013678;28;20080;-46
2023/12/14 03:53:47;;;;;;;3.20;2.08;;;21.00;48.30;;;;;;5018669;28;20044;-45
2023/12/14 03:56:13;;;;;;;2.00;1.80;;;21.00;48.30;;;;;;5016193;28;20069;-46
2023/12/14 03:58:39;;;;;;;2.17;1.88;;;21.00;48.30;;;;;;5012838;28;20037;-45
2023/12/14 04:01:05;;;;;;;2.47;1.98;;;21.00;48.40;;;;;;5015424;28;20032;-45
2023/12/14 04:03:32;;;;;;;3.05;2.20;;;21.00;48.30;;;;;;5015021;28;20033;-45
2023/12/14 04:05:58;;;;;;;3.28;2.03;;;20.90;48.20;;;;;;5014120;28;20036;-45
2023/12/14 04:08:24;;;;;;;2.80;2.15;;;20.90;48.30;;;;;;5013511;28;20041;-45
2023/12/14 04:10:50;;;;;;;3.90;2.30;;;20.90;48.40;;;;;;5042512;28;20035;-46
2023/12/14 04:13:17;;;;;;;3.15;2.33;;;20.90;48.40;;;;;;5117143;28;20028;-46
2023/12/14 04:15:43;;;;;;;4.43;2.43;;;20.90;48.50;;;;;;5120111;28;20045;-44
2023/12/14 04:18:09;;;;;;;2.45;2.10;;;20.90;48.50;;;;;;5119764;27;20357;-45
2023/12/14 04:20:35;;;;;;;2.30;1.98;;;20.90;48.40;;;;;;5119923;28;20038;-46
2023/12/14 04:23:01;;;;;;;4.38;2.78;;;20.80;48.30;;;;;;5121391;27;20031;-46
2023/12/14 04:25:28;;;;;;;3.38;2.63;;;20.80;48.50;;;;;;5122385;28;20046;-45
2023/12/14 04:27:54;;;;;;;3.55;2.50;;;20.80;48.40;;;;;;5118730;28;20035;-46
2023/12/14 04:30:20;;;;;;;2.78;2.33;;;20.80;48.50;;;;;;5118915;28;20060;-46
2023/12/14 04:32:47;;;;;;;2.92;2.53;;;20.80;48.50;;;;;;5118373;28;20027;-46
2023/12/14 04:35:13;;;;;;;2.78;2.40;;;20.80;48.50;;;;;;5120090;27;20051;-46
2023/12/14 04:37:39;;;;;;;3.10;2.30;;;20.70;48.40;;;;;;5117573;28;20034;-46
2023/12/14 04:40:06;;;;;;;3.78;3.00;;;20.70;48.50;;;;;;5120199;27;20142;-45
2023/12/14 04:42:32;;;;;;;3.05;2.75;;;20.70;48.50;;;;;;5119495;27;20112;-47
2023/12/14 04:44:58;;;;;;;3.20;2.53;;;20.70;48.50;;;;;;5121095;27;20087;-45
2023/12/14 04:47:25;;;;;;;3.47;2.63;;;20.70;48.50;;;;;;5120056;27;20047;-45
2023/12/14 04:49:51;;;;;;;3.00;2.37;;;20.70;48.60;;;;;;5118884;28;20043;-45
2023/12/14 04:52:17;;;;;;;4.18;2.47;;;20.70;48.50;;;;;;5118838;27;20077;-45
2023/12/14 04:54:43;;;;;;;4.20;2.47;;;20.60;48.50;;;;;;5118037;28;20099;-45
2023/12/14 04:57:09;;;;;;;3.70;3.05;;;20.60;48.60;;;;;;5118587;27;20042;-46
2023/12/14 04:59:35;;;;;;;3.10;2.80;;;20.60;48.60;;;;;;5118313;27;20027;-45
2023/12/14 05:02:02;;;;;;;3.22;2.70;;;20.60;48.60;;;;;;5121343;27;20475;-45
2023/12/14 05:04:28;;;;;;;3.50;2.60;;;20.60;48.60;;;;;;5118002;27;20127;-46
2023/12/14 05:06:54;;;;;;;4.20;3.30;;;20.60;48.60;;;;;;5113594;27;20028;-46
2023/12/14 05:09:20;;;;;;;3.80;3.10;;;20.60;48.70;;;;;;5115473;27;20050;-45
2023/12/14 05:11:46;;;;;;;4.65;3.35;;;20.60;48.70;;;;;;5114877;27;20092;-47
2023/12/14 05:14:13;;;;;;;4.50;3.30;;;20.60;48.70;;;;;;5117398;28;20124;-47
2023/12/14 05:16:39;;;;;;;3.85;3.00;;;20.60;48.70;;;;;;5120947;27;20023;-46
2023/12/14 05:19:05;;;;;;;4.75;3.42;;;20.50;48.70;;;;;;5122108;28;20030;-48
2023/12/14 05:21:31;;;;;;;5.38;3.20;;;20.50;48.70;;;;;;5114561;27;20036;-43
2023/12/14 05:23:57;;;;;;;5.32;3.17;;;20.50;48.80;;;;;;5118467;27;20027;-42
2023/12/14 05:26:23;;;;;;;5.22;2.75;;;20.50;48.80;;;;;;5120131;28;20134;-45
2023/12/14 05:28:49;;;;;;;4.03;2.78;;;20.60;48.80;;;;;;5120098;28;20050;-44
2023/12/14 05:31:15;;;;;;;3.80;2.72;;;20.60;48.70;;;;;;5120071;27;20024;-44
2023/12/14 05:33:41;;;;;;;3.92;2.85;;;20.70;48.70;;;;;;5114353;27;20046;-46
2023/12/14 05:36:10;;;;;;;2.97;2.65;;;20.80;48.70;;;;;;5116519;28;20063;-45
2023/12/14 05:38:38;;;;;;;4.18;2.80;;;20.90;48.70;;;;;;5113172;27;20020;-45
2023/12/14 05:41:04;;;;;;;5.03;2.63;;;20.90;48.50;;;;;;5115123;27;20034;-44
2023/12/14 05:43:31;;;;;;;5.20;2.75;;;21.10;48.50;;;;;;5119570;28;20020;-44
2023/12/14 05:45:57;;;;;;;2.90;2.60;;;21.10;48.30;;;;;;5114160;28;20042;-45
2023/12/14 05:48:23;;;;;;;3.22;2.83;;;21.30;48.30;;;;;;5111959;28;20110;-45
2023/12/14 05:50:51;;;;;;;3.08;2.78;;;21.30;48.20;;;;;;5112771;27;20035;-45
2023/12/14 05:53:17;;;;;;;4.18;2.88;;;21.40;48.20;;;;;;5108400;27;20385;-46
2023/12/14 05:55:43;;;;;;;3.40;2.67;;;21.50;48.10;;;;;;5113369;28;20028;-45
2023/12/14 05:58:09;;;;;;;3.85;2.90;;;21.60;47.90;;;;;;5111060;28;20637;-46
2023/12/14 06:00:35;;;;;;;3.58;2.90;;;21.70;47.70;;;;;;5109393;27;20112;-45
2023/12/14 06:03:02;;;;;;;3.57;2.90;;;21.70;47.60;;;;;;5113851;28;20048;-46
2023/12/14 06:05:28;;;;;;;3.67;2.77;;;21.80;47.60;;;;;;5113833;28;20280;-45
2023/12/14 06:07:54;;;;;;;3.08;2.53;;;21.90;47.60;;;;;;5111917;27;20071;-47
2023/12/14 06:10:21;;;;;;;3.10;2.70;;;22.00;47.40;;;;;;5113479;27;20040;-47
2023/12/14 06:12:47;;;;;;;3.75;2.60;;;22.00;47.10;;;;;;5113497;28;20039;-46
2023/12/14 06:15:14;;;;;;;4.90;2.83;;;22.10;47.30;;;;;;5115640;28;20087;-45
2023/12/14 06:17:41;;;;;;;8.00;3.13;;;22.20;47.30;;;;;;5110838;28;20048;-45
2023/12/14 06:20:10;;;;;;;5.65;2.72;;;22.20;47.20;;;;;;5113550;28;20042;-45
2023/12/14 06:22:37;;;;;;;3.95;3.08;;;22.20;47.10;;;;;;5111942;28;20035;-45
2023/12/14 06:25:03;;;;;;;5.47;2.80;;;22.20;47.20;;;;;;5116553;28;20058;-45
2023/12/14 06:27:29;;;;;;;3.38;2.90;;;22.10;46.80;;;;;;5113019;28;20051;-45
2023/12/14 06:29:55;;;;;;;4.03;3.05;;;22.10;46.60;;;;;;5109246;27;20076;-45
2023/12/14 06:32:22;;;;;;;5.07;2.60;;;22.10;46.70;;;;;;5113423;27;20040;-46
2023/12/14 06:34:48;;;;;;;4.22;3.05;;;22.10;46.70;;;;;;5114229;28;20084;-45
2023/12/14 06:37:14;;;;;;;4.15;3.30;;;22.00;46.70;;;;;;5114263;28;20023;-45
2023/12/14 06:39:43;;;;;;;3.80;3.08;;;22.00;47.40;;;;;;5114244;28;20599;-45
2023/12/14 06:42:10;;;;;;;2.85;2.50;;;21.90;46.80;;;;;;5109553;28;20799;-45
2023/12/14 06:44:36;;;;;;;3.67;2.70;;;21.90;46.50;;;;;;5114413;28;20055;-46
2023/12/14 06:47:02;;;;;;;3.03;2.40;;;21.90;46.70;;;;;;5112254;28;20039;-46
2023/12/14 06:49:28;;;;;;;3.97;2.85;;;21.90;46.70;;;;;;5108982;28;20062;-46
2023/12/14 06:51:54;;;;;;;3.22;2.72;;;21.90;46.70;;;;;;5108057;28;20058;-45
2023/12/14 06:54:21;;;;;;;3.95;2.97;;;22.00;46.70;;;;;;5118340;28;20038;-46
2023/12/14 06:56:47;;;;;;;4.05;3.08;;;22.00;46.60;;;;;;5119363;28;20027;-45
2023/12/14 06:59:13;;;;;;;3.75;2.95;;;22.10;46.50;;;;;;5120230;28;20042;-46
2023/12/14 07:01:40;;;;;;;3.90;3.00;;;22.10;46.70;;;;;;5117980;28;20058;-45
2023/12/14 07:04:07;;;;;;;3.67;2.70;;;22.10;46.60;;;;;;5116760;28;20032;-47
2023/12/14 07:06:35;;;;;;;3.67;2.83;;;22.10;46.50;;;;;;5114674;28;20038;-46
2023/12/14 07:09:00;;;;;;;;;;;22.10;46.60;;;;;;5115679;28;20040;-45
2023/12/14 07:11:27;;;;;;;5.25;3.40;;;22.10;46.60;;;;;;5115329;28;19933;-46
2023/12/14 07:13:53;;;;;;;3.17;2.88;;;22.00;46.80;;;;;;5117879;28;20035;-47
2023/12/14 07:16:20;;;;;;;3.92;2.97;;;22.00;46.20;;;;;;5117276;28;20091;-46
2023/12/14 07:18:46;;;;;;;4.10;3.20;;;22.00;46.40;;;;;;5122298;28;20853;-46
2023/12/14 07:21:13;;;;;;;3.70;3.10;;;21.90;46.40;;;;;;5120597;28;20050;-45
2023/12/14 07:23:39;;;;;;;3.50;2.97;;;21.90;46.50;;;;;;5102556;28;20032;-45
2023/12/14 07:26:05;;;;;;;3.90;2.67;;;21.80;46.60;;;;;;5120364;28;20080;-45
2023/12/14 07:28:31;;;;;;;3.65;2.45;;;21.80;46.40;;;;;;5119913;28;20043;-46
2023/12/14 07:30:57;;;;;;;4.13;3.28;;;21.80;46.50;;;;;;5122378;28;20051;-45
2023/12/14 07:33:24;;;;;;;3.75;2.95;;;21.80;46.50;;;;;;5122967;27;20053;-45
2023/12/14 07:35:50;;;;;;;3.22;2.80;;;21.90;46.50;;;;;;5119255;27;20040;-45
2023/12/14 07:38:16;;;;;;;3.17;2.80;;;21.90;46.40;;;;;;5114955;27;20093;-45
2023/12/14 07:40:42;;;;;;;3.50;2.80;;;22.00;46.40;;;;;;5120810;27;20038;-45
2023/12/14 07:43:08;;;;;;;4.07;3.10;;;22.00;46.20;;;;;;5113078;28;20227;-46
2023/12/14 07:45:34;;;;;;;3.58;3.00;;;22.10;46.50;;;;;;5109195;28;20020;-45
2023/12/14 07:48:00;;;;;;;4.00;2.80;;;22.10;46.40;;;;;;5113158;28;20052;-45
2023/12/14 07:50:26;;;;;;;4.35;2.80;;;22.10;46.40;;;;;;5115167;28;20036;-45
2023/12/14 07:52:53;;;;;;;3.78;3.00;;;22.00;46.40;;;;;;5115207;27;20032;-45
2023/12/14 07:55:20;;;;;;;3.60;3.10;;;22.00;46.50;;;;;;5111545;27;20059;-47
2023/12/14 07:57:46;;;;;;;3.10;2.72;;;22.00;46.10;;;;;;5112066;28;20074;-45
2023/12/14 08:00:12;;;;;;;4.15;2.88;;;22.00;46.00;;;;;;5111685;28;20042;-45
2023/12/14 08:02:39;;;;;;;4.00;3.05;;;21.90;46.20;;;;;;5114461;28;20070;-46
2023/12/14 08:05:05;;;;;;;3.83;2.90;;;21.90;46.20;;;;;;5110144;28;20035;-45
2023/12/14 08:07:32;;;;;;;3.17;2.60;;;21.90;46.20;;;;;;5115634;28;20028;-45
2023/12/14 08:09:58;;;;;;;5.18;3.30;;;21.80;46.30;;;;;;5114471;27;20092;-45
2023/12/14 08:12:25;;;;;;;3.73;2.80;;;21.80;46.20;;;;;;5109656;27;20027;-47
2023/12/14 08:14:51;;;;;;;3.00;2.65;;;21.80;46.40;;;;;;5111981;27;20057;-45
2023/12/14 08:17:17;;;;;;;4.25;2.60;;;21.80;46.30;;;;;;5110656;28;20056;-45
2023/12/14 08:19:44;;;;;;;4.22;3.03;;;21.90;46.30;;;;;;5110235;28;20066;-47
2023/12/14 08:22:12;;;;;;;3.10;2.65;;;21.90;46.30;;;;;;5110799;28;20061;-46
2023/12/14 08:24:42;;;;;;;4.00;2.97;;;21.90;46.20;;;;;;5108752;28;20046;-46
2023/12/14 08:27:08;;;;;;;3.38;2.65;;;22.00;46.20;;;;;;5114111;28;20032;-46
2023/12/14 08:29:34;;;;;;;3.17;2.60;;;22.10;46.10;;;;;;5092922;28;20039;-46
2023/12/14 08:32:00;;;;;;;3.42;3.10;;;22.10;46.30;;;;;;5110784;28;20076;-44
2023/12/14 08:34:27;;;;;;;5.03;2.40;;;22.10;46.30;;;;;;5111329;27;20032;-45
2023/12/14 08:36:53;;;;;;;3.90;3.50;;;22.10;46.20;;;;;;5107863;28;20267;-45
2023/12/14 08:39:19;;;;;;;3.60;2.92;;;22.10;46.20;;;;;;5109203;28;20031;-46
2023/12/14 08:41:48;;;;;;;3.60;3.10;;;22.00;46.20;;;;;;5109818;28;20100;-46
2023/12/14 08:44:15;;;;;;;3.10;2.78;;;22.00;45.90;;;;;;5110496;27;20067;-45
2023/12/14 08:46:42;;;;;;;3.30;2.72;;;22.00;45.90;;;;;;5110765;28;20056;-45
2023/12/14 08:49:08;;;;;;;3.60;2.70;;;22.00;46.00;;;;;;5113691;28;20044;-45
2023/12/14 08:51:34;;;;;;;4.40;3.28;;;21.90;46.00;;;;;;5107216;27;20023;-46
2023/12/14 08:54:00;;;;;;;3.65;3.00;;;21.90;46.20;;;;;;5109551;28;20560;-45
2023/12/14 08:56:26;;;;;;;3.67;3.00;;;21.80;46.10;;;;;;5109005;28;20118;-48
2023/12/14 08:58:52;;;;;;;3.50;2.90;;;21.80;46.00;;;;;;5112561;28;20027;-46
2023/12/14 09:01:22;;;;;;;3.58;2.90;;;21.80;46.10;;;;;;5117990;27;20704;-47
2023/12/14 09:03:49;;;;;;;4.03;2.90;;;21.90;46.10;;;;;;5114086;28;20128;-47
2023/12/14 09:06:16;;;;;;;3.65;2.65;;;21.90;46.10;;;;;;5113083;28;20036;-46
2023/12/14 09:08:43;;;;;;;2.90;2.50;;;21.90;46.00;;;;;;5098067;28;20067;-48
2023/12/14 09:11:10;;;;;;;2.33;2.13;;;22.00;45.90;;;;;;5117425;28;20028;-46
2023/12/14 09:13:36;;;;;;;3.50;2.70;;;22.00;45.80;;;;;;5111514;28;20067;-45
2023/12/14 09:16:02;;;;;;;3.40;2.70;;;22.10;46.20;;;;;;5112088;28;20032;-46
2023/12/14 09:18:28;;;;;;;3.22;2.75;;;22.10;46.00;;;;;;5108336;28;22010;-46
2023/12/14 09:20:54;;;;;;;5.57;2.70;;;22.10;46.00;;;;;;5106285;28;20028;-45
2023/12/14 09:23:20;;;;;;;3.75;3.00;;;22.10;46.10;;;;;;5106633;28;20046;-44
2023/12/14 09:25:46;;;;;;;3.40;2.65;;;22.00;45.90;;;;;;5115639;28;20036;-45
2023/12/14 09:28:13;;;;;;;3.40;2.85;;;22.00;45.60;;;;;;5121742;28;20051;-45
2023/12/14 09:30:39;;;;;;;4.28;3.10;;;22.00;45.80;;;;;;5114199;27;20054;-45
2023/12/14 09:33:08;;;;;;;3.50;2.92;;;22.00;45.90;;;;;;5110981;28;20795;-45
2023/12/14 09:35:36;;;;;;;4.75;2.92;;;21.90;45.90;;;;;;5109158;28;20725;-46
2023/12/14 09:38:03;;;;;;;4.57;3.40;;;21.90;46.10;;;;;;5109429;28;20038;-45
2023/12/14 09:40:30;;;;;;;3.03;2.58;;;21.80;45.90;;;;;;5088653;28;20098;-45
2023/12/14 09:42:56;;;;;;;15.97;3.57;;;21.80;45.60;;;;;;5111700;27;20032;-43
2023/12/14 09:45:28;;;;;;;9.95;3.10;;;21.80;46.10;;;;;;5111836;28;20028;-46
2023/12/14 09:47:56;;;;;;;7.45;2.75;;;21.80;46.00;;;;;;5106551;28;20059;-46
2023/12/14 09:50:22;;;;;;;6.45;3.38;;;21.90;46.00;;;;;;5109002;28;20035;-46
2023/12/14 09:52:49;;;;;;;9.10;2.97;;;21.90;45.90;;;;;;5094149;28;21012;-46
2023/12/14 09:55:16;;;;;;;4.20;3.10;;;22.00;45.90;;;;;;5107763;28;20088;-46
2023/12/14 09:57:42;;;;;;;4.82;3.10;;;22.00;45.70;;;;;;5108669;27;20061;-45
2023/12/14 10:00:14;;;;;;;4.57;2.70;;;22.10;46.00;;;;;;5107971;28;20024;-45
2023/12/14 10:02:40;;;;;;;5.22;2.95;;;22.10;46.40;;;;;;5106705;28;20027;-47
2023/12/14 10:05:10;;;;;;;3.92;3.00;;;22.00;45.80;;;;;;5118998;28;20073;-46
2023/12/14 10:07:43;;;;;;;3.28;2.80;;;22.00;45.90;;;;;;5093584;27;20040;-46
2023/12/14 10:10:14;;;;;;;3.55;2.70;;;22.00;45.60;;;;;;5115060;28;20055;-45
2023/12/14 10:13:00;;;;;;;3.10;2.78;;;22.00;45.50;;;;;;5112394;27;20020;-46
2023/12/14 10:15:27;;;;;;;3.88;2.58;;;22.00;45.60;;;;;;5108109;27;20015;-44
2023/12/14 10:17:54;;;;;;;3.85;2.80;;;21.90;45.60;;;;;;5114924;28;20491;-47
2023/12/14 10:20:21;;;;;;;;;;;21.90;45.70;;;;;;5095397;28;20087;-45
2023/12/14 10:22:49;;;;;;;3.65;2.88;;;21.80;45.80;;;;;;5115528;28;19912;-46
2023/12/14 10:25:14;;;;;;;;;;;21.80;45.60;;;;;;5113191;28;20042;-44
2023/12/14 10:27:41;;;;;;;3.20;2.72;;;21.80;45.60;;;;;;5111625;27;19936;-45
2023/12/14 10:30:11;;;;;;;4.00;2.85;;;21.80;45.70;;;;;;5108908;27;20031;-46
2023/12/14 10:32:38;;;;;;;4.63;2.97;;;21.70;45.70;;;;;;5113667;27;20031;-46
2023/12/14 10:35:04;;;;;;;3.38;2.63;;;21.80;45.70;;;;;;5110379;27;20042;-45
2023/12/14 10:37:30;;;;;;;3.60;3.00;;;21.80;45.70;;;;;;5109986;28;20511;-45
2023/12/14 10:39:56;;;;;;;4.25;2.83;;;21.90;45.70;;;;;;5112077;28;20035;-45
2023/12/14 10:42:22;;;;;;;3.40;2.50;;;21.90;45.70;;;;;;5117238;27;20096;-45
2023/12/14 10:44:55;;;;;;;4.28;2.78;;;22.00;45.60;;;;;;5089199;28;20064;-45
2023/12/14 10:47:21;;;;;;;4.97;2.78;;;22.10;45.60;;;;;;5118650;27;20043;-45
2023/12/14 10:49:50;;;;;;;4.63;2.70;;;22.10;45.50;;;;;;5112725;28;20036;-46
2023/12/14 10:52:17;;;;;;;2.75;2.47;;;22.20;45.40;;;;;;5092211;28;20062;-46
2023/12/14 10:54:43;;;;;;;3.97;3.17;;;22.20;45.60;;;;;;5089742;28;20075;-46
2023/12/14 10:57:09;;;;;;;4.57;3.17;;;22.30;45.50;;;;;;5114717;27;20062;-46
2023/12/14 10:59:35;;;;;;;3.97;2.72;;;22.30;45.30;;;;;;5113768;27;20057;-46
2023/12/14 11:02:06;;;;;;;3.50;2.75;;;22.20;45.30;;;;;;5113047;28;20034;-45
2023/12/14 11:04:52;;;;;;;2.83;2.60;;;22.20;45.50;;;;;;5097151;28;20059;-48
2023/12/14 11:07:18;;;;;;;3.83;2.90;;;22.20;45.10;;;;;;5108085;28;20107;-48
2023/12/14 11:09:44;;;;;;;3.78;2.63;;;22.20;45.20;;;;;;5116438;28;20064;-47
2023/12/14 11:12:10;;;;;;;3.47;2.93;;;22.10;45.20;;;;;;5094260;28;20028;-46
2023/12/14 11:14:36;;;;;;;3.50;3.13;;;22.10;45.40;;;;;;5071075;28;20273;-48
2023/12/14 11:17:06;;;;;;;5.38;3.28;;;22.00;45.40;;;;;;5105674;28;20039;-48
2023/12/14 11:19:33;;;;;;;4.65;3.05;;;22.00;45.40;;;;;;5111540;28;20088;-47
2023/12/14 11:22:08;;;;;;;3.53;2.47;;;21.90;45.10;;;;;;5114972;28;20030;-46
2023/12/14 11:24:37;;;;;;;3.67;2.75;;;21.90;45.20;;;;;;5110410;28;20040;-47
2023/12/14 11:27:07;;;;;;;3.17;2.70;;;21.90;45.20;;;;;;5105954;28;20024;-46
2023/12/14 11:29:35;;;;;;;3.15;2.83;;;21.90;45.30;;;;;;5117350;28;20036;-46
2023/12/14 11:32:01;;;;;;;4.20;2.90;;;21.90;45.30;;;;;;5104259;28;20422;-47
2023/12/14 11:34:28;;;;;;;3.50;2.88;;;21.90;45.30;;;;;;5119695;28;20031;-48
2023/12/14 11:36:55;;;;;;;3.25;2.50;;;22.00;45.20;;;;;;5108226;28;20023;-47
2023/12/14 11:39:21;;;;;;;2.70;2.22;;;22.00;45.20;;;;;;5114042;28;20034;-48
2023/12/14 11:42:01;;;;;;;2.45;2.25;;;22.10;45.20;;;;;;5107549;28;20149;-48
2023/12/14 11:44:27;;;;;;;3.83;2.65;;;22.10;45.20;;;;;;5107584;28;20028;-46
2023/12/14 11:46:54;;;;;;;3.28;2.75;;;22.20;45.20;;;;;;5110489;28;20047;-47
2023/12/14 11:49:20;;;;;;;3.53;2.60;;;22.30;45.10;;;;;;5110200;28;20138;-45
2023/12/14 11:51:47;;;;;;;3.20;2.67;;;22.30;45.30;;;;;;5116239;28;20053;-47
2023/12/14 11:54:13;;;;;;;3.40;2.50;;;22.30;45.10;;;;;;5108665;28;20031;-46
2023/12/14 11:56:45;;;;;;;3.72;2.90;;;22.30;45.10;;;;;;5108163;28;20064;-46
2023/12/14 11:59:11;;;;;;;3.22;2.60;;;22.30;45.00;;;;;;5109067;28;20540;-47
2023/12/14 12:01:37;;;;;;;3.65;2.78;;;22.30;45.20;;;;;;5112129;28;20123;-47
2023/12/14 12:04:13;;;;;;;2.75;2.35;;;22.30;45.10;;;;;;5098031;28;20028;-48
2023/12/14 12:06:39;;;;;;;3.92;2.80;;;22.20;44.90;;;;;;5111297;28;20020;-47
2023/12/14 12:09:08;;;;;;;3.03;2.57;;;22.20;44.90;;;;;;5113014;27;20104;-46
2023/12/14 12:11:34;;;;;;;3.85;2.90;;;22.20;44.90;;;;;;5110217;27;20038;-48
2023/12/14 12:14:01;;;;;;;2.75;2.28;;;22.10;45.00;;;;;;5097180;27;20543;-46
2023/12/14 12:16:27;;;;;;;3.13;2.47;;;22.10;45.10;;;;;;5114645;28;20032;-48
2023/12/14 12:18:53;;;;;;;4.13;2.65;;;22.00;44.90;;;;;;5111699;28;20028;-46
2023/12/14 12:21:19;;;;;;;3.70;2.60;;;22.00;44.90;;;;;;5115189;28;20111;-47
2023/12/14 12:23:45;;;;;;;4.32;2.95;;;22.00;45.00;;;;;;5116337;28;20039;-48
2023/12/14 12:26:11;;;;;;;4.00;2.65;;;21.90;45.00;;;;;;5116445;27;20019;-49
2023/12/14 12:28:38;;;;;;;2.67;2.10;;;21.90;45.10;;;;;;5115080;27;20046;-45
2023/12/14 12:31:04;;;;;;;3.60;2.38;;;21.90;45.10;;;;;;5117899;27;20035;-46
2023/12/14 12:33:31;;;;;;;4.72;2.33;;;22.00;44.90;;;;;;5116108;28;20043;-45
2023/12/14 12:35:57;;;;;;;2.42;2.10;;;22.00;45.00;;;;;;5115187;28;20031;-46
2023/12/14 12:38:23;;;;;;;3.80;2.33;;;22.10;45.10;;;;;;5118620;27;20049;-45
2023/12/14 12:40:49;;;;;;;2.90;2.30;;;22.10;45.00;;;;;;5114825;27;20054;-46
2023/12/14 12:43:15;;;;;;;2.97;2.15;;;22.20;44.90;;;;;;5112037;28;20019;-46
2023/12/14 12:45:41;;;;;;;3.78;2.40;;;22.20;44.90;;;;;;5115602;28;20054;-45